Veracruz — D6EY8 — position and weather

sailwx.info

Track history (hours):
 
Tides and Currents Weather Stations Pressure Air Temp Water Temp Dewpoint Dewpoint Depression Visibility Wind Speed Wind Dir Waves Ship Positions

Veracruz

Last reported at 2017-Oct-09 18:23 UTC. Time now 2017-Nov-23 23:57 UTC.
Position N 04°20' W 001°13'.
Warning: this ship's position is 45 days out of date.

Length 108 m; draft 5.1 m.

Type: Cargo ship. MMSI: 616772000.

Date/timePositionNaut miles runAvg speedWind from/ knotsBaromVisibWave heightAir tempDewpointWater temp
2017-Oct-09 18:23N 04°20' W 001°13'410.8
2017-Oct-09 18:00N 04°20' W 001°17'1510.7
2017-Oct-09 16:34N 04°20' W 001°33'110.7
2017-Oct-09 16:25N 04°20' W 001°34'410.6
2017-Oct-09 16:00N 04°20' W 001°38'510.4
2017-Oct-09 15:29N 04°20' W 001°44'610.4
2017-Oct-09 14:57N 04°20' W 001°49'510.5
2017-Oct-09 14:30N 04°20' W 001°54'610.6
2017-Oct-09 13:56N 04°20' W 002°00'510.7
2017-Oct-09 13:29N 04°20' W 002°05'510.7
2017-Oct-09 12:59N 04°20' W 002°10'510.5
2017-Oct-09 12:29N 04°20' W 002°16'510.3
2017-Oct-09 12:00N 04°20' W 002°21'510.2
2017-Oct-09 11:30N 04°20' W 002°26'510.2
2017-Oct-09 10:59N 04°20' W 002°31'510.2
2017-Oct-09 10:30N 04°20' W 002°36'510.0
2017-Oct-09 10:00N 04°20' W 002°41'510.0
2017-Oct-09 09:30N 04°20' W 002°46'510.1
2017-Oct-09 08:59N 04°20' W 002°51'510.0
2017-Oct-09 08:29N 04°20' W 002°56'510.6
2017-Oct-09 08:00N 04°20' W 003°01'510.7
2017-Oct-09 07:29N 04°20' W 003°07'510.9
2017-Oct-09 06:59N 04°20' W 003°12'510.2
2017-Oct-09 06:30N 04°22' W 003°17'610.5
2017-Oct-09 05:56N 04°26' W 003°22'2610.0
2017-Oct-09 03:21N 04°45' W 003°39'4 9.6
2017-Oct-09 02:57N 04°47' W 003°42'  
Track history (hours):
 
Tides and Currents Weather Stations Pressure Air Temp Water Temp Dewpoint Dewpoint Depression Visibility Wind Speed Wind Dir Waves Ship Positions

Veracruz

Last reported at 2017-Oct-09 18:23 UTC. Time now 2017-Nov-23 23:57 UTC.
Position N 04°20' W 001°13'.
Warning: this ship's position is 45 days out of date.

Length 108 m; draft 5.1 m.

Type: Cargo ship. MMSI: 616772000.

Date/timePositionNaut miles runAvg speedWind from/ knotsBaromVisibWave heightAir tempDewpointWater temp
2017-Oct-09 18:23N 04°20' W 001°13'410.8
2017-Oct-09 18:00N 04°20' W 001°17'1510.7
2017-Oct-09 16:34N 04°20' W 001°33'110.7
2017-Oct-09 16:25N 04°20' W 001°34'410.6
2017-Oct-09 16:00N 04°20' W 001°38'510.4
2017-Oct-09 15:29N 04°20' W 001°44'610.4
2017-Oct-09 14:57N 04°20' W 001°49'510.5
2017-Oct-09 14:30N 04°20' W 001°54'610.6
2017-Oct-09 13:56N 04°20' W 002°00'510.7
2017-Oct-09 13:29N 04°20' W 002°05'510.7
2017-Oct-09 12:59N 04°20' W 002°10'510.5
2017-Oct-09 12:29N 04°20' W 002°16'510.3
2017-Oct-09 12:00N 04°20' W 002°21'510.2
2017-Oct-09 11:30N 04°20' W 002°26'510.2
2017-Oct-09 10:59N 04°20' W 002°31'510.2
2017-Oct-09 10:30N 04°20' W 002°36'510.0
2017-Oct-09 10:00N 04°20' W 002°41'510.0
2017-Oct-09 09:30N 04°20' W 002°46'510.1
2017-Oct-09 08:59N 04°20' W 002°51'510.0
2017-Oct-09 08:29N 04°20' W 002°56'510.6
2017-Oct-09 08:00N 04°20' W 003°01'510.7
2017-Oct-09 07:29N 04°20' W 003°07'510.9
2017-Oct-09 06:59N 04°20' W 003°12'510.2
2017-Oct-09 06:30N 04°22' W 003°17'610.5
2017-Oct-09 05:56N 04°26' W 003°22'2610.0
2017-Oct-09 03:21N 04°45' W 003°39'4 9.6
2017-Oct-09 02:57N 04°47' W 003°42'  

Dump ship's entire track history